Sayreville, New Jersey
Current Conditions -  °F | °C
As of 9:55 AM on Tuesday 21 Oct 2014 (Local Time) from KLDJ Reporting Station
Broken Clouds Broken Clouds  
Wind Chill: 62°   Ceiling: 6000
Heat Index: 62°   Visibility: 10mi
Dew Point: 51°   Wind: 0mph
Humidity: 67%   Direction: NA
Pressure: 29.92"   Gusts: NA
Location:  40.47°N, 74.36°W
Report Text: KLDJ 211355Z AUTO 00000KT 10SM BKN060 BKN070 17/11 A2992 RMK AO2 T01670105
Loading
Personal Weather Stations






























Interactive Weather Map
Tropical Storm Tracking
New forecast layout! Learn more

10-Day Weather Forecast

Advertisements
Track Severe Weather on mobile